KRMG/RMG METAR and TAF weather

Enter ICAO airport designator
Station Type Date Time Source
KRMG METAR 2019/02/22 21:53 UTC NOAA

KRMG 222153Z AUTO 07005KT 9SM OVC007 11/10 A3017 RMK AO2 SLP214 T01110100


Station Type Date Time Source
KRMG Decoded METAR 2019/02/22 21:53 UTC NOAA

ROME R. B. RUSSELL AIRPORT, GA, United States (KRMG) 34-21N 085-10W 193M
Feb 22, 2019 - 04:53 PM EST / 2019.02.22 2153 UTC
Wind: from the ENE (070 degrees) at 6 MPH (5 KT):0
Visibility: 9 mile(s):0
Sky conditions: overcast
Temperature: 52.0 F (11.1 C)
Dew Point: 50.0 F (10.0 C)
Relative Humidity: 92%
Pressure (altimeter): 30.17 in. Hg (1021 hPa)
ob: KRMG 222153Z AUTO 07005KT 9SM OVC007 11/10 A3017 RMK AO2 SLP214 T01110100
cycle: 22

Station Type Date Time Source
KRMG TAF UTC NOAA

Error!


Example: see airport list